Time;durP1;ratioP1;P1;durP2;ratioP2;P2;SDS_P1;SDS_P2;PMS_P1;PMS_P2;Temp;Humidity;BMP_temperature;BMP_pressure;BME280_temperature;BME280_humidity;BME280_pressure;Samples;Min_cycle;Max_cycle;Signal;HPM_P1;HPM_P2
2023/04/03 00:03:38;;;;;;;8.30;7.40;;;;;;;0.84;100.00;98161.62;109473;1263;22044;-88
2023/04/03 00:06:11;;;;;;;10.20;9.20;;;;;;;0.85;100.00;98160.40;109897;1263;22490;31
2023/04/03 00:08:45;;;;;;;10.00;9.10;;;;;;;0.87;100.00;98159.49;103538;1263;22243;-84
2023/04/03 00:11:13;;;;;;;8.60;7.80;;;;;;;0.85;100.00;98156.05;109686;1289;23015;-89
2023/04/03 00:13:41;;;;;;;8.40;7.60;;;;;;;0.84;100.00;98156.73;109787;1289;21931;-85
2023/04/03 00:16:16;;;;;;;8.20;7.40;;;;;;;0.86;100.00;98159.38;109864;1264;22080;-86
2023/04/03 00:18:54;;;;;;;7.80;7.00;;;;;;;0.88;100.00;98157.61;102162;1264;10129687;31
2023/04/03 00:21:27;;;;;;;7.80;7.10;;;;;;;0.87;100.00;98159.77;109661;1266;22286;31
2023/04/03 00:24:00;;;;;;;7.60;6.90;;;;;;;0.89;100.00;98159.86;108683;1266;22733;-86
2023/04/03 00:26:34;;;;;;;6.90;6.30;;;;;;;0.90;100.00;98157.72;103887;1267;24620;31
2023/04/03 00:29:07;;;;;;;7.30;6.60;;;;;;;0.89;100.00;98159.29;109690;1264;22309;31
2023/04/03 00:31:56;;;;;;;7.90;7.20;;;;;;;0.91;100.00;98159.42;109854;1263;22557;31
2023/04/03 00:34:30;;;;;;;7.80;7.00;;;;;;;0.88;100.00;98158.45;109632;1267;22802;31
2023/04/03 00:37:20;;;;;;;6.90;6.10;;;;;;;0.91;100.00;98157.20;109797;1261;22819;31
2023/04/03 00:39:48;;;;;;;6.20;5.60;;;;;;;0.90;100.00;98156.91;109663;1261;22430;-91
2023/04/03 00:52:27;;;;;;;7.50;6.80;;;;;;;0.82;100.00;98160.83;95707;1268;22867;-87
2023/04/03 00:55:01;;;;;;;6.00;5.40;;;;;;;0.83;100.00;98157.96;109854;1264;22657;-89
2023/04/03 00:57:35;;;;;;;6.40;5.70;;;;;;;0.78;100.00;98162.20;109832;1267;22580;31
2023/04/03 01:00:09;;;;;;;5.40;4.90;;;;;;;0.80;100.00;98169.84;109596;1266;22265;-90
2023/04/03 01:02:37;;;;;;;6.20;5.60;;;;;;;0.75;100.00;98169.08;109726;1288;22186;-89
2023/04/03 01:05:06;;;;;;;5.90;5.30;;;;;;;0.70;100.00;98175.42;109702;1288;22257;-90
2023/04/03 01:07:36;;;;;;;6.10;5.50;;;;;;;0.66;100.00;98178.67;109720;1288;22372;-91
2023/04/03 01:10:08;;;;;;;5.60;5.00;;;;;;;0.62;100.00;98179.21;109752;1288;22078;-88
2023/04/03 01:12:38;;;;;;;6.40;5.80;;;;;;;0.54;100.00;98178.73;109739;1288;22383;-87
2023/04/03 01:15:10;;;;;;;5.90;5.30;;;;;;;0.52;100.00;98178.64;109699;1280;22924;-88
2023/04/03 01:17:46;;;;;;;5.60;5.10;;;;;;;0.53;100.00;98178.38;109738;1288;22153;-87
2023/04/03 01:20:36;;;;;;;6.70;5.60;;;;;;;0.51;100.00;98180.99;109868;1288;22210;-86
2023/04/03 01:23:10;;;;;;;5.80;5.30;;;;;;;0.47;100.00;98186.54;109910;1263;22291;-87
2023/04/03 01:25:48;;;;;;;6.30;5.70;;;;;;;0.46;100.00;98186.44;109855;1289;22217;-90
2023/04/03 01:31:31;;;;;;;6.00;5.40;;;;;;;0.43;100.00;98192.14;109660;1290;22718;-89
2023/04/03 01:33:59;;;;;;;5.20;4.70;;;;;;;0.46;100.00;98196.14;109686;1290;22211;-88
2023/04/03 01:36:31;;;;;;;5.30;4.60;;;;;;;0.47;100.00;98194.26;109626;1290;22275;-90
2023/04/03 01:39:00;;;;;;;8.10;7.40;;;;;;;0.49;100.00;98198.45;109623;1290;22195;-86
2023/04/03 01:41:29;;;;;;;6.10;5.40;;;;;;;0.49;100.00;98197.17;109620;1290;22990;-91
2023/04/03 01:44:03;;;;;;;6.00;5.40;;;;;;;0.47;100.00;98199.89;109650;1267;22296;-92
2023/04/03 01:46:32;;;;;;;5.60;5.00;;;;;;;0.47;100.00;98197.23;109749;1290;22181;-89
2023/04/03 01:49:00;;;;;;;6.00;5.10;;;;;;;0.50;100.00;98201.60;109671;1290;23197;-90
2023/04/03 01:51:29;;;;;;;5.70;5.10;;;;;;;0.48;100.00;98201.81;109660;1290;22159;-90
2023/04/03 01:53:57;;;;;;;7.10;6.10;;;;;;;0.52;100.00;98203.82;109486;1290;22138;-89
2023/04/03 01:56:26;;;;;;;7.20;6.50;;;;;;;0.48;100.00;98207.91;109653;1290;22917;-88
2023/04/03 01:58:55;;;;;;;8.00;7.20;;;;;;;0.57;100.00;98206.30;109675;1290;22201;-91
2023/04/03 02:01:23;;;;;;;8.60;7.00;;;;;;;0.52;100.00;98204.72;109726;1290;22219;-90
2023/04/03 02:03:51;;;;;;;8.50;7.30;;;;;;;0.53;100.00;98207.71;109666;1290;22407;-91
2023/04/03 02:06:20;;;;;;;8.50;7.70;;;;;;;0.53;100.00;98207.55;109760;1260;22503;-92
2023/04/03 02:08:49;;;;;;;8.70;7.90;;;;;;;0.54;100.00;98207.58;109817;1289;22132;-88
2023/04/03 02:11:35;;;;;;;9.20;8.30;;;;;;;0.55;100.00;98208.70;109807;1264;22398;31
2023/04/03 02:14:03;;;;;;;9.80;8.80;;;;;;;0.54;100.00;98212.14;107141;1273;22486;-92
2023/04/03 02:16:31;;;;;;;10.00;9.10;;;;;;;0.50;100.00;98213.27;109618;1289;22326;-88
2023/04/03 02:19:00;;;;;;;9.40;8.40;;;;;;;0.49;100.00;98214.24;109689;1289;22210;-86
2023/04/03 02:21:30;;;;;;;10.60;9.60;;;;;;;0.49;100.00;98217.63;109656;1289;22216;-88
2023/04/03 02:23:58;;;;;;;8.50;7.60;;;;;;;0.46;100.00;98221.80;109615;1289;22213;-87
2023/04/03 02:26:26;;;;;;;8.70;7.90;;;;;;;0.47;100.00;98219.34;109695;1289;22263;-89
2023/04/03 02:28:54;;;;;;;9.40;8.40;;;;;;;0.46;100.00;98222.30;109688;1289;22273;-87
2023/04/03 02:31:22;;;;;;;9.30;8.10;;;;;;;0.40;100.00;98223.30;109669;1289;22221;-87
2023/04/03 02:33:51;;;;;;;9.00;8.10;;;;;;;0.37;100.00;98221.48;109685;1289;22130;-88
2023/04/03 02:36:19;;;;;;;8.70;7.90;;;;;;;0.38;100.00;98225.98;109695;1289;22202;-88
2023/04/03 02:38:51;;;;;;;9.10;8.20;;;;;;;0.34;100.00;98221.21;109792;1289;23012;-87
2023/04/03 02:41:20;;;;;;;8.30;7.50;;;;;;;0.33;100.00;98226.88;109839;1289;22221;-86
2023/04/03 02:43:49;;;;;;;8.10;7.40;;;;;;;0.27;100.00;98223.16;109833;1289;22241;-86
2023/04/03 02:46:17;;;;;;;8.20;7.40;;;;;;;0.24;100.00;98223.23;109856;1281;22175;-87
2023/04/03 02:48:45;;;;;;;8.30;7.60;;;;;;;0.24;100.00;98220.39;109853;1289;22245;-86
2023/04/03 02:51:13;;;;;;;8.10;7.30;;;;;;;0.19;100.00;98221.95;109798;1289;22192;-86
2023/04/03 02:53:41;;;;;;;8.70;7.90;;;;;;;0.20;100.00;98222.77;109718;1289;22164;-87
2023/04/03 02:56:13;;;;;;;8.50;7.70;;;;;;;0.16;100.00;98222.64;109698;1289;22114;-86
2023/04/03 02:58:41;;;;;;;8.70;7.70;;;;;;;0.13;100.00;98223.73;109759;1289;22146;-88
2023/04/03 03:01:09;;;;;;;7.50;6.80;;;;;;;0.13;100.00;98227.23;109719;1289;22281;-88
2023/04/03 03:03:37;;;;;;;8.50;7.70;;;;;;;0.12;100.00;98229.17;109782;1289;22247;-88
2023/04/03 03:06:09;;;;;;;9.70;8.80;;;;;;;0.11;100.00;98229.73;109671;1289;22213;-90
2023/04/03 03:08:37;;;;;;;9.20;8.30;;;;;;;0.08;100.00;98227.31;109677;1289;23037;-87
2023/04/03 03:11:06;;;;;;;9.00;8.20;;;;;;;0.11;100.00;98235.19;109689;1289;22172;-87
2023/04/03 03:13:35;;;;;;;9.30;8.40;;;;;;;0.13;100.00;98231.77;109690;1275;23037;-89
2023/04/03 03:16:04;;;;;;;9.20;8.20;;;;;;;0.12;100.00;98235.41;109668;1270;22201;-87
2023/04/03 03:18:32;;;;;;;9.40;8.50;;;;;;;0.13;100.00;98234.49;109672;1289;23232;-88
2023/04/03 03:21:02;;;;;;;10.10;9.20;;;;;;;0.15;100.00;98233.55;109669;1289;22207;-85
2023/04/03 03:23:32;;;;;;;10.70;9.60;;;;;;;0.11;100.00;98235.14;109563;1289;22223;-85
2023/04/03 03:26:04;;;;;;;10.10;9.20;;;;;;;0.05;100.00;98237.38;109589;1289;23021;-86
2023/04/03 03:28:36;;;;;;;11.20;10.10;;;;;;;0.01;100.00;98238.20;109830;1289;22083;-86
2023/04/03 03:31:05;;;;;;;9.70;8.70;;;;;;;0.01;100.00;98240.89;109790;1289;22092;-91
2023/04/03 03:33:34;;;;;;;8.50;7.70;;;;;;;-0.06;100.00;98239.46;109659;1289;22839;-94
2023/04/03 03:36:02;;;;;;;8.20;7.40;;;;;;;-0.08;100.00;98243.40;109741;1289;22279;-91
2023/04/03 03:38:30;;;;;;;7.80;7.00;;;;;;;-0.13;100.00;98243.73;109534;1289;22278;-90
2023/04/03 03:41:00;;;;;;;7.20;6.50;;;;;;;-0.13;100.00;98245.29;109671;1289;22727;-91
2023/04/03 03:43:29;;;;;;;7.90;7.00;;;;;;;-0.18;100.00;98242.57;109567;1289;22257;-90
2023/04/03 03:45:57;;;;;;;8.80;7.00;;;;;;;-0.19;100.00;98246.25;109684;1289;22267;-90
2023/04/03 03:48:26;;;;;;;7.70;6.90;;;;;;;-0.24;100.00;98248.34;109690;1289;22258;-89
2023/04/03 03:50:54;;;;;;;7.80;7.10;;;;;;;-0.30;100.00;98253.09;109799;1289;22211;-93
2023/04/03 03:53:24;;;;;;;7.90;7.10;;;;;;;-0.31;100.00;98248.66;109769;1289;22255;-91
2023/04/03 03:55:54;;;;;;;8.60;7.80;;;;;;;-0.39;100.00;98253.67;109821;1289;22073;-83
2023/04/03 03:58:24;;;;;;;7.80;7.00;;;;;;;-0.38;100.00;98256.44;109595;1289;22285;-88
2023/04/03 04:00:52;;;;;;;7.70;7.00;;;;;;;-0.39;100.00;98255.34;109568;1289;22419;-88
2023/04/03 04:03:20;;;;;;;8.00;7.20;;;;;;;-0.45;100.00;98257.02;109650;1289;22189;-90
2023/04/03 04:05:55;;;;;;;7.60;6.90;;;;;;;-0.42;100.00;98257.16;109768;1259;22177;31
2023/04/03 04:08:24;;;;;;;8.10;7.40;;;;;;;-0.41;100.00;98261.34;109657;1288;22226;-93
2023/04/03 04:10:52;;;;;;;9.00;8.10;;;;;;;-0.43;100.00;98263.82;109811;1289;23051;-89
2023/04/03 04:13:21;;;;;;;9.10;8.20;;;;;;;-0.45;100.00;98267.98;109846;1263;22199;-91
2023/04/03 04:15:49;;;;;;;9.30;8.50;;;;;;;-0.44;100.00;98269.04;109886;1288;22235;-90
2023/04/03 04:18:19;;;;;;;8.10;7.30;;;;;;;-0.46;100.00;98271.29;109821;1288;22227;-92
2023/04/03 04:20:48;;;;;;;8.80;8.00;;;;;;;-0.42;100.00;98275.61;109846;1288;22213;-91
2023/04/03 04:23:18;;;;;;;8.60;7.20;;;;;;;-0.43;100.00;98276.20;109831;1288;22277;-90
2023/04/03 04:25:48;;;;;;;8.40;7.60;;;;;;;-0.46;100.00;98274.43;109874;1288;22191;-91
2023/04/03 04:28:17;;;;;;;8.70;7.80;;;;;;;-0.45;100.00;98276.30;109892;1288;22223;-92
2023/04/03 04:30:46;;;;;;;9.60;7.10;;;;;;;-0.43;100.00;98280.35;109855;1263;22236;-88
2023/04/03 04:33:16;;;;;;;8.30;7.50;;;;;;;-0.42;100.00;98280.90;109814;1289;22844;-93
2023/04/03 04:35:47;;;;;;;9.70;7.40;;;;;;;-0.47;100.00;98286.20;109816;1289;22271;-92
2023/04/03 04:38:16;;;;;;;8.80;7.90;;;;;;;-0.51;100.00;98287.63;109710;1289;22198;-92
2023/04/03 04:40:45;;;;;;;8.00;7.20;;;;;;;-0.49;100.00;98291.23;109821;1288;22670;-89
2023/04/03 04:43:14;;;;;;;8.60;7.70;;;;;;;-0.51;100.00;98294.72;109784;1267;22177;-91
2023/04/03 04:45:43;;;;;;;8.30;7.30;;;;;;;-0.58;100.00;98294.66;109628;1289;22240;-92
2023/04/03 04:48:12;;;;;;;8.50;6.70;;;;;;;-0.59;100.00;98298.69;109666;1289;22109;-91
2023/04/03 04:50:40;;;;;;;6.80;6.10;;;;;;;-0.66;100.00;98301.80;109617;1289;22284;-92
2023/04/03 04:53:08;;;;;;;6.80;6.10;;;;;;;-0.72;100.00;98300.51;109637;1289;22908;-91
2023/04/03 04:55:36;;;;;;;7.20;6.40;;;;;;;-0.76;100.00;98301.75;109669;1289;22219;-90
2023/04/03 04:58:05;;;;;;;10.10;9.20;;;;;;;-0.84;100.00;98305.19;109666;1289;23026;-89
2023/04/03 05:00:33;;;;;;;7.70;6.70;;;;;;;-0.87;100.00;98304.73;109721;1288;22197;-90
2023/04/03 05:03:01;;;;;;;7.30;6.60;;;;;;;-0.89;100.00;98309.06;109619;1289;22912;-87
2023/04/03 05:05:29;;;;;;;8.20;6.90;;;;;;;-0.89;100.00;98313.82;109667;1289;22300;-88
2023/04/03 05:07:57;;;;;;;7.80;6.70;;;;;;;-0.91;100.00;98311.15;109550;1289;22875;-86
2023/04/03 05:10:26;;;;;;;8.10;7.20;;;;;;;-0.94;100.00;98312.00;109609;1289;22154;-89
2023/04/03 05:12:54;;;;;;;8.50;6.70;;;;;;;-0.92;100.00;98315.27;109620;1289;22211;-86
2023/04/03 05:15:22;;;;;;;8.00;7.20;;;;;;;-0.94;100.00;98311.23;109528;1289;22295;-85
2023/04/03 05:17:50;;;;;;;10.00;7.80;;;;;;;-0.97;100.00;98317.95;109671;1289;22274;-85
2023/04/03 05:20:19;;;;;;;9.00;8.10;;;;;;;-0.97;100.00;98318.61;109620;1289;22261;-83
2023/04/03 05:22:47;;;;;;;8.40;7.50;;;;;;;-1.01;100.00;98325.50;109587;1289;22281;-81
2023/04/03 05:25:15;;;;;;;9.50;7.90;;;;;;;-1.04;100.00;98323.29;109588;1289;22609;-83
2023/04/03 05:27:44;;;;;;;10.50;8.00;;;;;;;-1.01;100.00;98325.38;109618;1289;23058;-83
2023/04/03 05:30:12;;;;;;;7.80;6.70;;;;;;;-1.05;100.00;98325.20;109607;1289;22225;-84
2023/04/03 05:32:42;;;;;;;9.60;8.10;;;;;;;-1.09;100.00;98330.59;109626;1289;22698;-85
2023/04/03 05:35:19;;;;;;;9.60;8.60;;;;;;;-1.12;100.00;98336.27;109719;1289;22216;-84
2023/04/03 05:37:49;;;;;;;11.30;10.10;;;;;;;-1.11;100.00;98336.96;109625;1286;22185;-84
2023/04/03 05:40:18;;;;;;;9.80;8.60;;;;;;;-1.09;100.00;98337.23;109673;1279;22288;-84
2023/04/03 05:42:48;;;;;;;8.20;7.00;;;;;;;-1.14;100.00;98342.23;109698;1289;23112;-85
2023/04/03 05:45:17;;;;;;;10.00;6.50;;;;;;;-1.15;100.00;98345.00;109657;1289;22208;-90
2023/04/03 05:47:45;;;;;;;7.30;6.60;;;;;;;-1.20;100.00;98350.02;109441;1289;22232;-90
2023/04/03 05:50:14;;;;;;;7.80;6.60;;;;;;;-1.23;100.00;98350.65;109625;1289;22968;-90
2023/04/03 05:52:45;;;;;;;7.10;6.30;;;;;;;-1.30;100.00;98347.45;109635;1289;22226;-88
2023/04/03 05:55:15;;;;;;;7.30;6.60;;;;;;;-1.36;100.00;98353.11;109621;1289;23060;-86
2023/04/03 05:57:43;;;;;;;7.70;6.40;;;;;;;-1.39;100.00;98357.23;109383;1289;22192;-86
2023/04/03 06:00:15;;;;;;;8.30;6.60;;;;;;;-1.39;100.00;98353.21;109595;1289;22197;-85
2023/04/03 06:02:47;;;;;;;10.80;8.10;;;;;;;-1.38;100.00;98358.94;109538;1289;22322;-92
2023/04/03 06:05:19;;;;;;;10.10;7.90;;;;;;;-1.41;100.00;98362.12;109449;1289;22217;-90
2023/04/03 06:07:49;;;;;;;10.00;7.30;;;;;;;-1.43;100.00;98358.37;109675;1289;22110;-91
2023/04/03 06:10:17;;;;;;;8.20;7.00;;;;;;;-1.39;100.00;98363.73;109596;1289;22252;-89
2023/04/03 06:12:48;;;;;;;10.00;8.40;;;;;;;-1.35;100.00;98362.92;109678;1287;22631;-90
2023/04/03 06:15:17;;;;;;;10.10;7.70;;;;;;;-1.31;100.00;98364.33;109696;1289;22230;-90
2023/04/03 06:17:45;;;;;;;8.80;6.80;;;;;;;-1.24;100.00;98367.05;109440;1289;22185;-92
2023/04/03 06:20:14;;;;;;;10.00;6.80;;;;;;;-1.21;100.00;98363.05;109630;1272;22159;-92
2023/04/03 06:22:42;;;;;;;9.70;7.00;;;;;;;-1.18;100.00;98363.36;109663;1284;22133;-92
2023/04/03 06:25:12;;;;;;;8.70;7.00;;;;;;;-1.12;100.00;98366.46;109562;1289;22298;-91
2023/04/03 06:27:40;;;;;;;11.10;7.20;;;;;;;-1.07;100.00;98370.88;109704;1289;22950;-92
2023/04/03 06:30:08;;;;;;;8.30;7.10;;;;;;;-0.98;99.97;98374.40;109713;1289;22128;-90
2023/04/03 06:32:36;;;;;;;8.40;6.60;;;;;;;-0.94;99.94;98375.63;109811;1289;22894;-93
2023/04/03 06:35:05;;;;;;;7.80;7.00;;;;;;;-0.91;99.07;98381.15;109708;1289;22832;-89
2023/04/03 06:37:35;;;;;;;8.80;6.40;;;;;;;-0.89;99.15;98386.60;109553;1289;22155;-90
2023/04/03 06:40:04;;;;;;;8.50;6.60;;;;;;;-0.81;98.36;98389.48;109647;1289;22201;-83
2023/04/03 06:42:32;;;;;;;7.80;6.50;;;;;;;-0.81;97.66;98395.66;109649;1289;22261;-86
2023/04/03 06:45:11;;;;;;;8.50;7.60;;;;;;;-0.78;97.90;98395.00;109480;1285;22142;-86
2023/04/03 06:47:39;;;;;;;7.80;6.10;;;;;;;-0.76;97.06;98394.30;109630;1289;22297;-85
2023/04/03 06:50:11;;;;;;;8.10;6.50;;;;;;;-0.72;97.39;98394.66;109637;1289;22251;-87
2023/04/03 06:52:39;;;;;;;8.30;6.70;;;;;;;-0.62;97.41;98395.91;109521;1289;22352;-85
2023/04/03 06:55:09;;;;;;;13.40;11.90;;;;;;;-0.54;96.23;98398.05;109557;1289;22214;-87
2023/04/03 06:57:37;;;;;;;9.50;7.80;;;;;;;-0.57;95.58;98399.17;109546;1283;23201;-85
2023/04/03 07:00:07;;;;;;;13.90;11.00;;;;;;;-0.56;95.15;98402.83;109518;1289;22304;-86
2023/04/03 07:02:35;;;;;;;10.70;8.40;;;;;;;-0.53;95.38;98401.14;109642;1289;22246;-85
2023/04/03 07:05:04;;;;;;;10.80;8.00;;;;;;;-0.48;95.24;98404.53;109640;1289;23180;-85
2023/04/03 07:07:33;;;;;;;12.60;8.40;;;;;;;-0.41;95.41;98411.60;109623;1289;22392;-86
2023/04/03 07:10:02;;;;;;;11.40;9.40;;;;;;;-0.35;94.77;98409.33;109685;1289;23082;-85
2023/04/03 07:12:30;;;;;;;12.20;9.90;;;;;;;-0.32;94.26;98416.02;109525;1289;22267;-86
2023/04/03 07:14:59;;;;;;;9.90;7.70;;;;;;;-0.30;93.36;98419.96;109600;1289;22204;-85
2023/04/03 07:17:27;;;;;;;9.70;6.40;;;;;;;-0.33;92.83;98427.48;109612;1289;23037;-85
2023/04/03 07:19:55;;;;;;;11.50;8.00;;;;;;;-0.37;91.67;98430.27;109638;1289;22205;-85
2023/04/03 07:22:23;;;;;;;9.10;8.00;;;;;;;-0.46;91.57;98424.14;109518;1289;22267;-85
2023/04/03 07:24:51;;;;;;;11.20;8.30;;;;;;;-0.33;91.07;98435.02;109636;1289;22265;-85
2023/04/03 07:27:19;;;;;;;12.10;9.20;;;;;;;-0.35;91.19;98439.34;109517;1289;22195;-85
2023/04/03 07:29:48;;;;;;;10.90;8.10;;;;;;;-0.34;90.96;98440.31;109623;1289;22197;-84
2023/04/03 07:32:17;;;;;;;10.60;8.00;;;;;;;-0.32;89.97;98445.48;109624;1289;22205;-84
2023/04/03 07:34:45;;;;;;;11.90;9.20;;;;;;;-0.32;89.79;98448.08;109376;1289;22182;-84
2023/04/03 07:37:13;;;;;;;11.20;7.90;;;;;;;-0.30;89.29;98450.15;109662;1289;22180;-85
2023/04/03 07:39:44;;;;;;;11.80;8.50;;;;;;;-0.34;87.99;98452.29;109647;1289;22386;-85
2023/04/03 07:42:12;;;;;;;10.20;7.70;;;;;;;-0.35;88.65;98452.02;109642;1289;22302;-85
2023/04/03 07:44:41;;;;;;;13.10;10.00;;;;;;;-0.29;87.71;98452.21;109609;1289;22168;-86
2023/04/03 07:47:09;;;;;;;8.70;7.30;;;;;;;-0.31;87.00;98445.84;109682;1289;22132;-85
2023/04/03 07:49:40;;;;;;;10.20;8.30;;;;;;;-0.28;86.91;98446.41;109547;1289;22184;-86
2023/04/03 07:52:08;;;;;;;11.30;8.30;;;;;;;-0.25;86.94;98444.69;109669;1289;22176;-86
2023/04/03 07:54:37;;;;;;;12.10;9.20;;;;;;;-0.27;85.48;98448.50;109695;1289;22835;-85
2023/04/03 07:57:05;;;;;;;11.40;10.30;;;;;;;-0.21;87.51;98448.52;109611;1289;22249;-87
2023/04/03 07:59:33;;;;;;;10.30;9.00;;;;;;;-0.10;85.97;98446.89;109735;1289;22247;-86
2023/04/03 08:02:04;;;;;;;10.40;8.50;;;;;;;-0.11;85.49;98451.99;109601;1289;22177;-85
2023/04/03 08:04:32;;;;;;;12.90;10.90;;;;;;;-0.07;85.85;98451.39;109697;1289;22222;-85
2023/04/03 08:07:01;;;;;;;11.80;8.90;;;;;;;0.02;85.19;98455.32;109752;1289;22160;-86
2023/04/03 08:10:19;;;;;;;9.20;8.10;;;;;;;0.06;84.91;98456.86;109666;1289;22127;-85
2023/04/03 08:12:47;;;;;;;10.40;7.80;;;;;;;0.17;84.22;98457.30;109728;1289;22242;-85
2023/04/03 08:15:16;;;;;;;12.80;8.90;;;;;;;0.29;84.09;98458.26;109657;1289;22221;-86
2023/04/03 08:17:44;;;;;;;10.30;8.70;;;;;;;0.41;84.61;98460.02;109664;1289;22989;-89
2023/04/03 08:20:12;;;;;;;10.30;7.70;;;;;;;0.50;82.91;98462.66;109691;1289;22108;-88
2023/04/03 08:22:40;;;;;;;9.00;6.50;;;;;;;0.49;81.90;98462.67;109652;1289;22200;-90
2023/04/03 08:25:08;;;;;;;8.90;7.40;;;;;;;0.51;81.71;98463.95;109646;1289;22249;-89
2023/04/03 08:27:37;;;;;;;11.40;8.60;;;;;;;0.57;80.88;98466.91;109650;1277;22220;-89
2023/04/03 08:30:06;;;;;;;9.70;8.30;;;;;;;0.63;80.72;98467.83;109384;1289;22160;-89
2023/04/03 08:32:35;;;;;;;10.10;7.50;;;;;;;0.75;81.22;98469.70;109643;1289;22208;-90
2023/04/03 08:35:04;;;;;;;7.90;6.20;;;;;;;0.87;80.82;98470.80;109658;1289;22237;-88
2023/04/03 08:37:36;;;;;;;8.50;6.80;;;;;;;1.00;78.28;98478.44;109693;1289;22249;-89
2023/04/03 08:40:06;;;;;;;9.60;6.50;;;;;;;1.15;79.20;98478.33;109383;1289;22927;-88
2023/04/03 08:43:00;;;;;;;8.80;6.60;;;;;;;1.19;77.10;98480.93;109670;1289;23091;-86
2023/04/03 08:45:28;;;;;;;10.30;6.80;;;;;;;1.19;77.50;98479.06;109647;1289;22210;-88
2023/04/03 08:48:07;;;;;;;7.90;6.10;;;;;;;1.23;74.67;98487.34;109643;1289;23036;-87
2023/04/03 08:50:41;;;;;;;6.90;5.50;;;;;;;1.14;75.07;98481.20;109662;1289;22938;-89
2023/04/03 08:53:17;;;;;;;7.90;5.80;;;;;;;1.07;73.53;98495.30;109540;1289;22273;-87
2023/04/03 08:55:48;;;;;;;7.70;5.90;;;;;;;0.84;72.74;98496.98;109655;1289;22191;-87
2023/04/03 08:58:24;;;;;;;9.40;7.80;;;;;;;0.79;73.99;98498.27;109387;1288;23045;-89
2023/04/03 09:01:05;;;;;;;9.40;7.30;;;;;;;0.95;74.18;98498.77;109561;1289;22833;-90
2023/04/03 09:03:37;;;;;;;7.80;6.30;;;;;;;1.08;74.88;98495.00;109653;1289;22127;-92
2023/04/03 09:06:32;;;;;;;9.60;6.40;;;;;;;1.14;74.86;98496.50;109778;1289;22427;-89
2023/04/03 09:09:30;;;;;;;6.90;5.70;;;;;;;1.25;75.09;98497.88;109742;1264;22657;-87
2023/04/03 09:12:20;;;;;;;6.40;5.50;;;;;;;1.25;73.04;98501.98;109828;1288;22301;-89
2023/04/03 09:14:56;;;;;;;7.00;5.80;;;;;;;1.24;73.34;98506.06;109721;1288;23033;-88
2023/04/03 09:17:40;;;;;;;8.40;6.20;;;;;;;1.37;74.32;98501.05;109788;1288;22214;-90
2023/04/03 09:23:46;;;;;;;7.40;5.20;;;;;;;1.48;72.53;98512.27;109705;1289;22194;-90
2023/04/03 09:26:24;;;;;;;7.50;6.20;;;;;;;1.60;73.10;98509.13;109764;1289;22218;-88
2023/04/03 09:28:55;;;;;;;7.70;5.70;;;;;;;1.79;72.47;98513.75;109656;1289;22204;-90
2023/04/03 09:31:27;;;;;;;7.60;5.40;;;;;;;1.94;72.94;98513.98;109763;1289;22248;-87
2023/04/03 09:34:02;;;;;;;7.70;6.40;;;;;;;1.96;70.99;98515.46;109746;1261;22524;-88
2023/04/03 09:36:41;;;;;;;8.80;7.30;;;;;;;1.89;71.30;98521.75;109742;1267;22152;-88
2023/04/03 09:39:17;;;;;;;8.50;7.40;;;;;;;1.97;73.15;98519.00;109872;1289;22228;-85
2023/04/03 09:45:04;;;;;;;8.00;5.60;;;;;;;2.43;72.25;98518.97;109722;1290;22698;-91
2023/04/03 09:47:35;;;;;;;7.10;5.70;;;;;;;2.42;72.41;98519.80;109746;1271;22299;-89
2023/04/03 09:50:13;;;;;;;9.10;7.10;;;;;;;2.62;73.06;98530.02;109848;1285;22225;-89
2023/04/03 09:52:43;;;;;;;7.60;5.60;;;;;;;2.82;72.73;98527.25;109796;1288;22145;-90
2023/04/03 09:55:17;;;;;;;8.20;5.80;;;;;;;2.64;68.35;98533.35;109805;1263;21985;-90
2023/04/03 09:57:48;;;;;;;7.10;6.10;;;;;;;2.28;69.15;98537.30;109752;1264;22242;-87
2023/04/03 10:00:25;;;;;;;8.50;5.70;;;;;;;2.07;68.80;98548.96;109680;1281;22187;-85
2023/04/03 10:02:57;;;;;;;8.80;5.20;;;;;;;1.90;69.15;98540.38;109693;1289;22297;-83
2023/04/03 10:05:35;;;;;;;10.20;6.30;;;;;;;1.89;69.98;98546.15;109605;1289;22191;-89
2023/04/03 10:08:10;;;;;;;7.90;6.70;;;;;;;2.08;69.89;98544.61;109741;1289;22217;-91
2023/04/03 10:10:40;;;;;;;7.80;5.80;;;;;;;2.05;68.02;98540.39;109754;1289;22073;-88
2023/04/03 10:13:20;;;;;;;9.40;6.30;;;;;;;1.94;68.34;98543.30;109800;1289;22264;-88
2023/04/03 10:15:57;;;;;;;6.90;5.70;;;;;;;1.80;69.65;98543.17;109755;1289;22202;-92
2023/04/03 10:18:29;;;;;;;7.40;5.20;;;;;;;1.84;70.08;98550.80;109699;1287;22291;-90
2023/04/03 10:21:06;;;;;;;6.70;5.20;;;;;;;1.75;68.85;98551.05;109745;1289;22286;-92
2023/04/03 10:23:54;;;;;;;8.40;5.80;;;;;;;1.70;70.15;98549.45;109775;1289;22233;-93
2023/04/03 10:26:37;;;;;;;8.40;6.60;;;;;;;1.71;69.55;98548.29;109789;1289;22211;-92
2023/04/03 10:29:14;;;;;;;7.50;6.40;;;;;;;1.76;69.92;98552.18;109761;1289;22249;-92
2023/04/03 10:32:20;;;;;;;7.40;5.70;;;;;;;1.89;70.55;98548.23;109698;1286;23106;-90
2023/04/03 10:34:57;;;;;;;10.80;5.90;;;;;;;2.36;71.45;98545.92;109679;1289;22983;-91
2023/04/03 10:38:39;;;;;;;6.90;5.60;;;;;;;2.89;70.94;98546.89;109700;1289;22939;-91
2023/04/03 10:41:46;;;;;;;7.90;6.30;;;;;;;3.04;67.41;98546.04;108853;1297;22155;-87
2023/04/03 10:44:39;;;;;;;7.60;6.60;;;;;;;3.06;68.67;98549.33;108814;1297;23092;-89
2023/04/03 10:47:18;;;;;;;7.80;5.90;;;;;;;3.08;68.74;98545.28;108595;1297;22250;-88
2023/04/03 10:50:30;;;;;;;9.90;6.50;;;;;;;3.08;69.54;98537.45;108866;1297;23041;-89
2023/04/03 10:53:11;;;;;;;6.40;5.40;;;;;;;3.09;68.78;98542.20;108860;1297;22361;-87
2023/04/03 10:55:50;;;;;;;6.60;5.60;;;;;;;3.16;67.75;98540.01;108841;1297;22255;-87
2023/04/03 10:58:29;;;;;;;7.70;5.90;;;;;;;3.02;65.36;98544.87;108834;1297;22977;-88
2023/04/03 11:01:05;;;;;;;9.10;6.40;;;;;;;2.92;67.45;98543.65;108830;1297;22267;-88
2023/04/03 11:03:43;;;;;;;7.40;5.40;;;;;;;3.05;68.38;98547.29;108824;1297;22247;-90
2023/04/03 11:06:15;;;;;;;7.40;5.70;;;;;;;3.03;66.72;98547.95;108834;1297;22299;-86
2023/04/03 11:08:50;;;;;;;7.40;6.30;;;;;;;2.81;66.95;98544.48;108835;1297;22287;-88
2023/04/03 11:11:25;;;;;;;;;;;;;;;2.81;67.69;98551.96;108981;1297;22445;-91
2023/04/03 11:14:16;;;;;;;7.30;6.50;;;;;;;2.83;68.46;98551.96;108836;1297;22156;-85
2023/04/03 11:16:47;;;;;;;8.90;5.80;;;;;;;3.10;69.04;98550.60;108756;1297;22145;-90
2023/04/03 11:19:33;;;;;;;7.30;6.00;;;;;;;3.38;69.51;98542.20;109730;1289;22194;-92
2023/04/03 11:22:32;;;;;;;10.70;6.30;;;;;;;3.65;69.55;98534.52;109908;1264;22123;-91
2023/04/03 11:25:06;;;;;;;11.50;6.70;;;;;;;3.86;66.21;98533.67;109570;1290;22180;-91
2023/04/03 11:27:54;;;;;;;9.80;6.20;;;;;;;3.77;67.99;98531.51;109701;1266;22830;-92
2023/04/03 11:30:33;;;;;;;8.60;5.80;;;;;;;3.95;66.92;98534.75;109814;1287;22337;-92
2023/04/03 11:36:30;;;;;;;7.70;4.70;;;;;;;4.28;67.59;98527.09;109778;1258;22327;31
2023/04/03 11:39:23;;;;;;;7.70;5.20;;;;;;;4.57;67.63;98525.79;109758;1289;22280;-91
2023/04/03 11:41:52;;;;;;;7.30;5.90;;;;;;;4.94;66.60;98515.05;109763;1264;22065;-88
2023/04/03 11:45:24;;;;;;;7.00;5.40;;;;;;;5.02;65.51;98522.85;109629;1289;22271;-90
2023/04/03 11:47:55;;;;;;;6.80;5.30;;;;;;;4.73;62.33;98523.50;109663;1289;22221;-89
2023/04/03 11:50:42;;;;;;;6.20;4.80;;;;;;;4.52;60.93;98522.88;109758;1289;22165;-91
2023/04/03 11:53:13;;;;;;;7.30;6.10;;;;;;;4.02;60.97;98527.84;109732;1289;23020;-88
2023/04/03 11:55:45;;;;;;;7.20;5.30;;;;;;;3.85;60.81;98526.90;109782;1289;22685;-90
2023/04/03 11:58:27;;;;;;;7.00;5.30;;;;;;;4.05;60.33;98516.42;109873;1289;22152;-89
2023/04/03 12:01:08;;;;;;;5.20;4.10;;;;;;;4.42;59.32;98516.38;109794;1264;22915;-92
2023/04/03 12:03:39;;;;;;;7.90;6.20;;;;;;;4.60;56.62;98513.49;109825;1288;22224;-91
2023/04/03 12:06:10;;;;;;;6.50;5.40;;;;;;;4.89;58.13;98512.10;109772;1288;22155;-92
2023/04/03 12:08:41;;;;;;;7.60;6.00;;;;;;;5.19;58.82;98497.69;109751;1288;23026;-89
2023/04/03 12:11:12;;;;;;;8.10;7.10;;;;;;;5.34;60.04;98502.50;109698;1288;22837;-89
2023/04/03 12:13:56;;;;;;;5.20;4.70;;;;;;;5.35;57.56;98509.94;109750;1288;22230;-88
2023/04/03 12:16:30;;;;;;;6.60;5.90;;;;;;;5.05;57.76;98505.89;109813;1288;23127;-86